sensor_id;sensor_type;location;lat;lon;timestamp;P1;durP1;ratioP1;P2;durP2;ratioP2
68247;SDS011;55064;49.636;12.164;2022-07-23T00:00:10;12.57;;;8.47;;
68247;SDS011;55064;49.636;12.164;2022-07-23T00:02:36;12.70;;;8.35;;
68247;SDS011;55064;49.636;12.164;2022-07-23T00:05:04;14.43;;;8.13;;
68247;SDS011;55064;49.636;12.164;2022-07-23T00:07:31;11.77;;;7.97;;
68247;SDS011;55064;49.636;12.164;2022-07-23T00:09:57;12.23;;;7.50;;
68247;SDS011;55064;49.636;12.164;2022-07-23T00:12:22;13.82;;;8.10;;
68247;SDS011;55064;49.636;12.164;2022-07-23T00:14:48;15.93;;;8.30;;
68247;SDS011;55064;49.636;12.164;2022-07-23T00:17:13;13.47;;;7.60;;
68247;SDS011;55064;49.636;12.164;2022-07-23T00:19:43;12.80;;;8.43;;
68247;SDS011;55064;49.636;12.164;2022-07-23T00:22:08;14.10;;;8.50;;
68247;SDS011;55064;49.636;12.164;2022-07-23T00:24:34;12.23;;;7.80;;
68247;SDS011;55064;49.636;12.164;2022-07-23T00:27:01;11.85;;;7.50;;
68247;SDS011;55064;49.636;12.164;2022-07-23T00:29:27;11.33;;;7.20;;
68247;SDS011;55064;49.636;12.164;2022-07-23T00:31:52;11.07;;;7.30;;
68247;SDS011;55064;49.636;12.164;2022-07-23T00:34:17;11.60;;;7.57;;
68247;SDS011;55064;49.636;12.164;2022-07-23T00:36:43;12.53;;;8.07;;
68247;SDS011;55064;49.636;12.164;2022-07-23T00:39:13;14.70;;;8.13;;
68247;SDS011;55064;49.636;12.164;2022-07-23T00:41:38;14.75;;;7.80;;
68247;SDS011;55064;49.636;12.164;2022-07-23T00:46:47;12.88;;;8.10;;
68247;SDS011;55064;49.636;12.164;2022-07-23T00:49:14;13.77;;;9.00;;
68247;SDS011;55064;49.636;12.164;2022-07-23T00:51:41;18.08;;;8.15;;
68247;SDS011;55064;49.636;12.164;2022-07-23T00:54:09;12.25;;;8.25;;
68247;SDS011;55064;49.636;12.164;2022-07-23T00:56:34;15.57;;;8.47;;
68247;SDS011;55064;49.636;12.164;2022-07-23T00:59:03;18.65;;;8.73;;
68247;SDS011;55064;49.636;12.164;2022-07-23T01:01:30;14.68;;;8.13;;
68247;SDS011;55064;49.636;12.164;2022-07-23T01:03:55;12.83;;;8.27;;
68247;SDS011;55064;49.636;12.164;2022-07-23T01:06:21;14.57;;;8.30;;
68247;SDS011;55064;49.636;12.164;2022-07-23T01:08:48;14.37;;;8.40;;
68247;SDS011;55064;49.636;12.164;2022-07-23T01:11:14;14.07;;;8.27;;
68247;SDS011;55064;49.636;12.164;2022-07-23T01:13:43;15.50;;;8.63;;
68247;SDS011;55064;49.636;12.164;2022-07-23T01:16:09;14.57;;;8.38;;
68247;SDS011;55064;49.636;12.164;2022-07-23T01:18:36;15.30;;;8.48;;
68247;SDS011;55064;49.636;12.164;2022-07-23T01:21:05;18.38;;;9.15;;
68247;SDS011;55064;49.636;12.164;2022-07-23T01:23:32;14.77;;;8.43;;
68247;SDS011;55064;49.636;12.164;2022-07-23T01:25:58;15.55;;;9.38;;
68247;SDS011;55064;49.636;12.164;2022-07-23T01:28:25;14.47;;;9.50;;
68247;SDS011;55064;49.636;12.164;2022-07-23T01:30:51;18.83;;;9.85;;
68247;SDS011;55064;49.636;12.164;2022-07-23T01:33:16;15.17;;;9.73;;
68247;SDS011;55064;49.636;12.164;2022-07-23T01:35:44;18.27;;;10.32;;
68247;SDS011;55064;49.636;12.164;2022-07-23T01:38:14;17.10;;;9.80;;
68247;SDS011;55064;49.636;12.164;2022-07-23T01:40:39;17.52;;;10.63;;
68247;SDS011;55064;49.636;12.164;2022-07-23T01:43:07;15.20;;;9.90;;
68247;SDS011;55064;49.636;12.164;2022-07-23T01:45:32;16.95;;;9.80;;
68247;SDS011;55064;49.636;12.164;2022-07-23T01:48:02;14.30;;;9.77;;
68247;SDS011;55064;49.636;12.164;2022-07-23T01:50:30;14.93;;;9.43;;
68247;SDS011;55064;49.636;12.164;2022-07-23T01:52:58;14.43;;;9.18;;
68247;SDS011;55064;49.636;12.164;2022-07-23T01:55:26;15.55;;;9.68;;
68247;SDS011;55064;49.636;12.164;2022-07-23T01:57:51;15.73;;;9.80;;
68247;SDS011;55064;49.636;12.164;2022-07-23T02:00:17;13.98;;;9.02;;
68247;SDS011;55064;49.636;12.164;2022-07-23T02:02:42;13.73;;;8.93;;
68247;SDS011;55064;49.636;12.164;2022-07-23T02:05:12;13.98;;;8.82;;
68247;SDS011;55064;49.636;12.164;2022-07-23T02:07:40;14.30;;;8.80;;
68247;SDS011;55064;49.636;12.164;2022-07-23T02:10:06;14.03;;;9.03;;
68247;SDS011;55064;49.636;12.164;2022-07-23T02:12:31;14.18;;;9.23;;
68247;SDS011;55064;49.636;12.164;2022-07-23T02:15:00;13.93;;;8.60;;
68247;SDS011;55064;49.636;12.164;2022-07-23T02:17:26;16.25;;;9.05;;
68247;SDS011;55064;49.636;12.164;2022-07-23T02:19:51;16.07;;;9.63;;
68247;SDS011;55064;49.636;12.164;2022-07-23T02:22:16;16.27;;;9.90;;
68247;SDS011;55064;49.636;12.164;2022-07-23T02:24:44;15.10;;;9.57;;
68247;SDS011;55064;49.636;12.164;2022-07-23T02:27:12;16.40;;;8.93;;
68247;SDS011;55064;49.636;12.164;2022-07-23T02:29:40;17.60;;;9.73;;
68247;SDS011;55064;49.636;12.164;2022-07-23T02:32:08;15.90;;;10.40;;
68247;SDS011;55064;49.636;12.164;2022-07-23T02:34:33;15.97;;;9.83;;
68247;SDS011;55064;49.636;12.164;2022-07-23T02:36:59;16.23;;;9.50;;
68247;SDS011;55064;49.636;12.164;2022-07-23T02:39:26;16.43;;;9.80;;
68247;SDS011;55064;49.636;12.164;2022-07-23T02:41:54;18.00;;;9.18;;
68247;SDS011;55064;49.636;12.164;2022-07-23T02:44:22;14.85;;;9.57;;
68247;SDS011;55064;49.636;12.164;2022-07-23T02:46:51;14.88;;;8.48;;
68247;SDS011;55064;49.636;12.164;2022-07-23T02:49:16;15.30;;;9.33;;
68247;SDS011;55064;49.636;12.164;2022-07-23T02:51:44;16.50;;;9.53;;
68247;SDS011;55064;49.636;12.164;2022-07-23T02:54:11;15.75;;;9.93;;
68247;SDS011;55064;49.636;12.164;2022-07-23T02:56:37;16.27;;;9.55;;
68247;SDS011;55064;49.636;12.164;2022-07-23T02:59:02;15.57;;;9.83;;
68247;SDS011;55064;49.636;12.164;2022-07-23T03:01:28;15.20;;;9.87;;
68247;SDS011;55064;49.636;12.164;2022-07-23T03:03:53;16.17;;;9.82;;
68247;SDS011;55064;49.636;12.164;2022-07-23T03:06:21;15.83;;;9.60;;
68247;SDS011;55064;49.636;12.164;2022-07-23T03:08:49;15.98;;;10.18;;
68247;SDS011;55064;49.636;12.164;2022-07-23T03:11:15;19.40;;;9.50;;
68247;SDS011;55064;49.636;12.164;2022-07-23T03:13:44;17.45;;;10.18;;
68247;SDS011;55064;49.636;12.164;2022-07-23T03:16:12;17.05;;;10.90;;
68247;SDS011;55064;49.636;12.164;2022-07-23T03:18:40;16.57;;;10.20;;
68247;SDS011;55064;49.636;12.164;2022-07-23T03:21:06;17.38;;;10.02;;
68247;SDS011;55064;49.636;12.164;2022-07-23T03:23:31;16.63;;;9.90;;
68247;SDS011;55064;49.636;12.164;2022-07-23T03:25:59;16.33;;;10.13;;
68247;SDS011;55064;49.636;12.164;2022-07-23T03:28:25;15.63;;;10.93;;
68247;SDS011;55064;49.636;12.164;2022-07-23T03:30:52;16.40;;;10.00;;
68247;SDS011;55064;49.636;12.164;2022-07-23T03:33:19;14.13;;;9.63;;
68247;SDS011;55064;49.636;12.164;2022-07-23T03:35:47;19.30;;;10.10;;
68247;SDS011;55064;49.636;12.164;2022-07-23T03:38:13;17.60;;;10.23;;
68247;SDS011;55064;49.636;12.164;2022-07-23T03:40:41;15.10;;;10.20;;
68247;SDS011;55064;49.636;12.164;2022-07-23T03:43:10;13.82;;;9.52;;
68247;SDS011;55064;49.636;12.164;2022-07-23T03:45:37;14.82;;;9.60;;
68247;SDS011;55064;49.636;12.164;2022-07-23T03:48:08;14.10;;;9.67;;
68247;SDS011;55064;49.636;12.164;2022-07-23T03:50:34;13.88;;;9.23;;
68247;SDS011;55064;49.636;12.164;2022-07-23T03:52:59;15.60;;;9.30;;
68247;SDS011;55064;49.636;12.164;2022-07-23T03:55:27;14.60;;;9.13;;
68247;SDS011;55064;49.636;12.164;2022-07-23T03:57:53;13.50;;;9.30;;
68247;SDS011;55064;49.636;12.164;2022-07-23T04:00:21;14.45;;;9.32;;
68247;SDS011;55064;49.636;12.164;2022-07-23T04:02:46;13.07;;;8.47;;
68247;SDS011;55064;49.636;12.164;2022-07-23T04:05:14;15.02;;;9.20;;
68247;SDS011;55064;49.636;12.164;2022-07-23T04:07:42;14.82;;;9.52;;
68247;SDS011;55064;49.636;12.164;2022-07-23T04:10:10;16.63;;;9.48;;
68247;SDS011;55064;49.636;12.164;2022-07-23T04:12:36;15.20;;;9.50;;
68247;SDS011;55064;49.636;12.164;2022-07-23T04:15:01;14.53;;;9.47;;
68247;SDS011;55064;49.636;12.164;2022-07-23T04:17:29;13.85;;;8.60;;
68247;SDS011;55064;49.636;12.164;2022-07-23T04:19:54;18.43;;;9.17;;
68247;SDS011;55064;49.636;12.164;2022-07-23T04:22:20;13.65;;;8.60;;
68247;SDS011;55064;49.636;12.164;2022-07-23T04:24:45;14.37;;;8.70;;
68247;SDS011;55064;49.636;12.164;2022-07-23T04:27:10;25.03;;;14.10;;
68247;SDS011;55064;49.636;12.164;2022-07-23T04:29:38;19.45;;;11.13;;
68247;SDS011;55064;49.636;12.164;2022-07-23T04:32:04;13.63;;;8.97;;
68247;SDS011;55064;49.636;12.164;2022-07-23T04:34:30;15.57;;;9.20;;
68247;SDS011;55064;49.636;12.164;2022-07-23T04:36:55;16.50;;;8.30;;
68247;SDS011;55064;49.636;12.164;2022-07-23T04:39:30;13.40;;;8.40;;
68247;SDS011;55064;49.636;12.164;2022-07-23T04:41:55;13.32;;;8.05;;
68247;SDS011;55064;49.636;12.164;2022-07-23T04:44:23;17.00;;;9.67;;
68247;SDS011;55064;49.636;12.164;2022-07-23T04:46:49;15.70;;;8.93;;
68247;SDS011;55064;49.636;12.164;2022-07-23T04:49:14;15.53;;;8.93;;
68247;SDS011;55064;49.636;12.164;2022-07-23T04:51:40;12.77;;;8.00;;
68247;SDS011;55064;49.636;12.164;2022-07-23T04:54:07;12.52;;;7.70;;
68247;SDS011;55064;49.636;12.164;2022-07-23T04:56:35;13.43;;;7.80;;
68247;SDS011;55064;49.636;12.164;2022-07-23T04:59:03;11.75;;;7.43;;
68247;SDS011;55064;49.636;12.164;2022-07-23T05:01:33;12.97;;;8.00;;
68247;SDS011;55064;49.636;12.164;2022-07-23T05:04:01;12.98;;;8.00;;
68247;SDS011;55064;49.636;12.164;2022-07-23T05:06:27;11.40;;;7.30;;
68247;SDS011;55064;49.636;12.164;2022-07-23T05:08:57;16.02;;;7.75;;
68247;SDS011;55064;49.636;12.164;2022-07-23T05:11:22;13.07;;;7.90;;
68247;SDS011;55064;49.636;12.164;2022-07-23T05:13:48;12.30;;;7.10;;
68247;SDS011;55064;49.636;12.164;2022-07-23T05:16:13;11.77;;;7.17;;
68247;SDS011;55064;49.636;12.164;2022-07-23T05:18:43;13.10;;;7.20;;
68247;SDS011;55064;49.636;12.164;2022-07-23T05:21:11;11.73;;;7.45;;
68247;SDS011;55064;49.636;12.164;2022-07-23T05:23:39;11.07;;;7.18;;
68247;SDS011;55064;49.636;12.164;2022-07-23T05:26:04;10.70;;;7.07;;
68247;SDS011;55064;49.636;12.164;2022-07-23T05:28:32;13.35;;;6.90;;
68247;SDS011;55064;49.636;12.164;2022-07-23T05:31:00;11.68;;;7.32;;
68247;SDS011;55064;49.636;12.164;2022-07-23T05:33:29;12.10;;;6.93;;
68247;SDS011;55064;49.636;12.164;2022-07-23T05:35:59;12.07;;;6.80;;
68247;SDS011;55064;49.636;12.164;2022-07-23T05:38:31;12.65;;;7.13;;
68247;SDS011;55064;49.636;12.164;2022-07-23T05:40:57;13.43;;;6.75;;
68247;SDS011;55064;49.636;12.164;2022-07-23T05:43:23;11.50;;;7.65;;
68247;SDS011;55064;49.636;12.164;2022-07-23T05:45:48;12.33;;;7.53;;
68247;SDS011;55064;49.636;12.164;2022-07-23T05:48:14;12.73;;;6.90;;
68247;SDS011;55064;49.636;12.164;2022-07-23T05:50:39;11.93;;;6.93;;
68247;SDS011;55064;49.636;12.164;2022-07-23T05:53:05;11.90;;;7.10;;
68247;SDS011;55064;49.636;12.164;2022-07-23T05:55:30;11.27;;;6.43;;
68247;SDS011;55064;49.636;12.164;2022-07-23T05:57:58;11.27;;;6.80;;
68247;SDS011;55064;49.636;12.164;2022-07-23T06:00:27;12.02;;;7.20;;
68247;SDS011;55064;49.636;12.164;2022-07-23T06:02:56;12.45;;;6.53;;
68247;SDS011;55064;49.636;12.164;2022-07-23T06:05:21;13.03;;;6.93;;
68247;SDS011;55064;49.636;12.164;2022-07-23T06:07:47;10.15;;;6.43;;
68247;SDS011;55064;49.636;12.164;2022-07-23T06:10:15;11.25;;;7.07;;
68247;SDS011;55064;49.636;12.164;2022-07-23T06:12:41;11.47;;;6.70;;
68247;SDS011;55064;49.636;12.164;2022-07-23T06:15:07;11.27;;;6.28;;
68247;SDS011;55064;49.636;12.164;2022-07-23T06:17:33;11.75;;;6.50;;
68247;SDS011;55064;49.636;12.164;2022-07-23T06:19:58;9.93;;;6.40;;
68247;SDS011;55064;49.636;12.164;2022-07-23T06:22:26;10.67;;;6.07;;
68247;SDS011;55064;49.636;12.164;2022-07-23T06:24:52;10.88;;;6.15;;
68247;SDS011;55064;49.636;12.164;2022-07-23T06:27:17;11.37;;;6.57;;
68247;SDS011;55064;49.636;12.164;2022-07-23T06:29:43;10.77;;;7.13;;
68247;SDS011;55064;49.636;12.164;2022-07-23T06:32:11;10.83;;;6.70;;
68247;SDS011;55064;49.636;12.164;2022-07-23T06:34:36;11.65;;;6.07;;
68247;SDS011;55064;49.636;12.164;2022-07-23T06:37:02;10.77;;;6.20;;
68247;SDS011;55064;49.636;12.164;2022-07-23T06:39:30;10.13;;;6.32;;
68247;SDS011;55064;49.636;12.164;2022-07-23T06:41:55;10.53;;;6.27;;
68247;SDS011;55064;49.636;12.164;2022-07-23T06:44:23;9.88;;;6.22;;
68247;SDS011;55064;49.636;12.164;2022-07-23T06:46:49;10.30;;;6.40;;
68247;SDS011;55064;49.636;12.164;2022-07-23T06:49:17;10.93;;;6.40;;
68247;SDS011;55064;49.636;12.164;2022-07-23T06:51:47;11.85;;;6.40;;
68247;SDS011;55064;49.636;12.164;2022-07-23T06:54:12;8.50;;;5.60;;
68247;SDS011;55064;49.636;12.164;2022-07-23T06:56:43;12.32;;;6.13;;
68247;SDS011;55064;49.636;12.164;2022-07-23T06:59:11;11.00;;;5.82;;
68247;SDS011;55064;49.636;12.164;2022-07-23T07:01:38;10.95;;;6.00;;
68247;SDS011;55064;49.636;12.164;2022-07-23T07:04:04;10.03;;;6.00;;
68247;SDS011;55064;49.636;12.164;2022-07-23T07:06:29;9.03;;;5.90;;
68247;SDS011;55064;49.636;12.164;2022-07-23T07:08:55;12.05;;;5.53;;
68247;SDS011;55064;49.636;12.164;2022-07-23T07:11:21;8.67;;;5.33;;
68247;SDS011;55064;49.636;12.164;2022-07-23T07:13:49;8.18;;;5.20;;
68247;SDS011;55064;49.636;12.164;2022-07-23T07:16:14;9.18;;;5.80;;
68247;SDS011;55064;49.636;12.164;2022-07-23T07:18:40;9.13;;;5.37;;
68247;SDS011;55064;49.636;12.164;2022-07-23T07:21:07;8.88;;;6.18;;
68247;SDS011;55064;49.636;12.164;2022-07-23T07:23:33;10.43;;;6.07;;
68247;SDS011;55064;49.636;12.164;2022-07-23T07:25:58;8.93;;;5.70;;
68247;SDS011;55064;49.636;12.164;2022-07-23T07:28:26;10.30;;;5.70;;
68247;SDS011;55064;49.636;12.164;2022-07-23T07:30:52;9.45;;;5.80;;
68247;SDS011;55064;49.636;12.164;2022-07-23T07:33:17;9.55;;;6.20;;
68247;SDS011;55064;49.636;12.164;2022-07-23T07:35:46;9.10;;;5.93;;
68247;SDS011;55064;49.636;12.164;2022-07-23T07:38:11;9.80;;;6.30;;
68247;SDS011;55064;49.636;12.164;2022-07-23T07:40:40;13.15;;;6.25;;
68247;SDS011;55064;49.636;12.164;2022-07-23T07:43:05;11.53;;;6.07;;
68247;SDS011;55064;49.636;12.164;2022-07-23T07:45:30;10.23;;;6.47;;
68247;SDS011;55064;49.636;12.164;2022-07-23T07:47:56;9.82;;;6.88;;
68247;SDS011;55064;49.636;12.164;2022-07-23T07:50:24;10.60;;;6.53;;
68247;SDS011;55064;49.636;12.164;2022-07-23T07:52:52;10.63;;;7.00;;
68247;SDS011;55064;49.636;12.164;2022-07-23T07:55:19;10.70;;;6.32;;
68247;SDS011;55064;49.636;12.164;2022-07-23T07:57:45;10.70;;;7.33;;
68247;SDS011;55064;49.636;12.164;2022-07-23T08:00:10;10.45;;;6.30;;
68247;SDS011;55064;49.636;12.164;2022-07-23T08:02:40;10.30;;;6.63;;
68247;SDS011;55064;49.636;12.164;2022-07-23T08:05:05;9.80;;;6.45;;
68247;SDS011;55064;49.636;12.164;2022-07-23T08:07:31;9.38;;;6.40;;
68247;SDS011;55064;49.636;12.164;2022-07-23T08:09:56;9.90;;;6.60;;
68247;SDS011;55064;49.636;12.164;2022-07-23T08:12:24;10.23;;;7.07;;
68247;SDS011;55064;49.636;12.164;2022-07-23T08:14:55;10.30;;;7.00;;
68247;SDS011;55064;49.636;12.164;2022-07-23T08:17:21;10.70;;;7.70;;
68247;SDS011;55064;49.636;12.164;2022-07-23T08:19:49;9.93;;;7.25;;
68247;SDS011;55064;49.636;12.164;2022-07-23T08:22:15;11.27;;;6.90;;
68247;SDS011;55064;49.636;12.164;2022-07-23T08:24:42;10.23;;;6.80;;
68247;SDS011;55064;49.636;12.164;2022-07-23T08:27:08;11.75;;;6.80;;
68247;SDS011;55064;49.636;12.164;2022-07-23T08:29:34;10.20;;;7.07;;
68247;SDS011;55064;49.636;12.164;2022-07-23T08:31:59;10.32;;;6.97;;
68247;SDS011;55064;49.636;12.164;2022-07-23T08:34:27;11.40;;;7.30;;
68247;SDS011;55064;49.636;12.164;2022-07-23T08:36:53;9.40;;;7.07;;
68247;SDS011;55064;49.636;12.164;2022-07-23T08:39:23;10.93;;;7.28;;
68247;SDS011;55064;49.636;12.164;2022-07-23T08:41:52;10.87;;;7.27;;
68247;SDS011;55064;49.636;12.164;2022-07-23T08:44:20;11.55;;;7.22;;
68247;SDS011;55064;49.636;12.164;2022-07-23T08:46:46;10.07;;;6.87;;
68247;SDS011;55064;49.636;12.164;2022-07-23T08:49:15;10.30;;;7.07;;
68247;SDS011;55064;49.636;12.164;2022-07-23T08:51:40;11.70;;;7.53;;
68247;SDS011;55064;49.636;12.164;2022-07-23T08:54:09;10.77;;;6.82;;
68247;SDS011;55064;49.636;12.164;2022-07-23T08:56:35;11.07;;;6.70;;
68247;SDS011;55064;49.636;12.164;2022-07-23T08:59:01;10.70;;;7.13;;
68247;SDS011;55064;49.636;12.164;2022-07-23T09:01:29;10.98;;;7.38;;
68247;SDS011;55064;49.636;12.164;2022-07-23T09:03:54;11.97;;;7.27;;
68247;SDS011;55064;49.636;12.164;2022-07-23T09:06:20;11.50;;;7.27;;
68247;SDS011;55064;49.636;12.164;2022-07-23T09:08:48;11.73;;;7.77;;
68247;SDS011;55064;49.636;12.164;2022-07-23T09:11:15;10.43;;;7.85;;
68247;SDS011;55064;49.636;12.164;2022-07-23T09:13:45;13.33;;;7.57;;
68247;SDS011;55064;49.636;12.164;2022-07-23T09:16:16;10.88;;;7.90;;
68247;SDS011;55064;49.636;12.164;2022-07-23T09:21:15;10.77;;;7.38;;
68247;SDS011;55064;49.636;12.164;2022-07-23T09:24:09;12.10;;;7.53;;
68247;SDS011;55064;49.636;12.164;2022-07-23T09:26:39;10.50;;;7.03;;
68247;SDS011;55064;49.636;12.164;2022-07-23T09:36:41;11.05;;;6.20;;
68247;SDS011;55064;49.636;12.164;2022-07-23T09:39:07;10.67;;;6.27;;
68247;SDS011;55064;49.636;12.164;2022-07-23T09:41:36;10.70;;;6.65;;
68247;SDS011;55064;49.636;12.164;2022-07-23T09:44:08;9.07;;;6.45;;
68247;SDS011;55064;49.636;12.164;2022-07-23T09:46:45;10.27;;;6.10;;
68247;SDS011;55064;49.636;12.164;2022-07-23T09:49:19;9.53;;;6.20;;
68247;SDS011;55064;49.636;12.164;2022-07-23T09:51:47;10.07;;;5.88;;
68247;SDS011;55064;49.636;12.164;2022-07-23T09:54:22;9.32;;;5.90;;
68247;SDS011;55064;49.636;12.164;2022-07-23T09:56:52;9.38;;;5.70;;
68247;SDS011;55064;49.636;12.164;2022-07-23T09:59:18;10.27;;;5.20;;
68247;SDS011;55064;49.636;12.164;2022-07-23T10:01:51;7.63;;;4.73;;
68247;SDS011;55064;49.636;12.164;2022-07-23T10:04:20;8.30;;;4.70;;
68247;SDS011;55064;49.636;12.164;2022-07-23T10:06:47;7.80;;;4.80;;
68247;SDS011;55064;49.636;12.164;2022-07-23T10:09:13;7.68;;;4.13;;
68247;SDS011;55064;49.636;12.164;2022-07-23T10:11:41;9.60;;;5.07;;
68247;SDS011;55064;49.636;12.164;2022-07-23T10:14:11;8.37;;;4.40;;
68247;SDS011;55064;49.636;12.164;2022-07-23T10:16:39;7.05;;;4.20;;
68247;SDS011;55064;49.636;12.164;2022-07-23T10:19:05;7.75;;;4.68;;
68247;SDS011;55064;49.636;12.164;2022-07-23T10:21:34;7.70;;;4.40;;
68247;SDS011;55064;49.636;12.164;2022-07-23T10:24:13;7.18;;;4.43;;
68247;SDS011;55064;49.636;12.164;2022-07-23T10:27:11;10.10;;;4.50;;
68247;SDS011;55064;49.636;12.164;2022-07-23T10:30:02;9.27;;;5.05;;
68247;SDS011;55064;49.636;12.164;2022-07-23T10:38:13;9.25;;;5.40;;
68247;SDS011;55064;49.636;12.164;2022-07-23T10:40:55;8.55;;;4.82;;
68247;SDS011;55064;49.636;12.164;2022-07-23T10:43:26;9.82;;;5.20;;
68247;SDS011;55064;49.636;12.164;2022-07-23T10:45:52;9.10;;;4.83;;
68247;SDS011;55064;49.636;12.164;2022-07-23T10:48:21;8.55;;;4.80;;
68247;SDS011;55064;49.636;12.164;2022-07-23T10:51:08;9.95;;;4.80;;
68247;SDS011;55064;49.636;12.164;2022-07-23T10:59:19;7.97;;;4.77;;
68247;SDS011;55064;49.636;12.164;2022-07-23T11:01:47;9.23;;;4.57;;
68247;SDS011;55064;49.636;12.164;2022-07-23T11:04:17;8.20;;;4.70;;
68247;SDS011;55064;49.636;12.164;2022-07-23T11:15:13;10.63;;;5.60;;
68247;SDS011;55064;49.636;12.164;2022-07-23T11:17:37;8.82;;;5.30;;
68247;SDS011;55064;49.636;12.164;2022-07-23T11:25:09;9.33;;;6.10;;
68247;SDS011;55064;49.636;12.164;2022-07-23T11:27:39;8.13;;;5.32;;
68247;SDS011;55064;49.636;12.164;2022-07-23T11:30:37;11.90;;;5.75;;
68247;SDS011;55064;49.636;12.164;2022-07-23T11:32:55;8.68;;;5.43;;
68247;SDS011;55064;49.636;12.164;2022-07-23T11:35:40;8.63;;;5.38;;
68247;SDS011;55064;49.636;12.164;2022-07-23T11:38:16;9.47;;;5.43;;
68247;SDS011;55064;49.636;12.164;2022-07-23T11:40:51;10.23;;;5.40;;
68247;SDS011;55064;49.636;12.164;2022-07-23T11:49:02;10.10;;;5.65;;
68247;SDS011;55064;49.636;12.164;2022-07-23T11:51:30;9.90;;;5.93;;
68247;SDS011;55064;49.636;12.164;2022-07-23T11:54:05;9.35;;;5.50;;
68247;SDS011;55064;49.636;12.164;2022-07-23T11:56:31;8.88;;;5.32;;
68247;SDS011;55064;49.636;12.164;2022-07-23T11:59:00;9.27;;;5.47;;
68247;SDS011;55064;49.636;12.164;2022-07-23T12:01:28;9.88;;;5.30;;
68247;SDS011;55064;49.636;12.164;2022-07-23T12:04:08;8.07;;;4.80;;
68247;SDS011;55064;49.636;12.164;2022-07-23T12:06:37;8.98;;;5.05;;
68247;SDS011;55064;49.636;12.164;2022-07-23T12:09:03;7.80;;;4.93;;
68247;SDS011;55064;49.636;12.164;2022-07-23T12:11:28;7.77;;;4.87;;
68247;SDS011;55064;49.636;12.164;2022-07-23T12:13:57;8.77;;;5.23;;
68247;SDS011;55064;49.636;12.164;2022-07-23T12:24:56;8.10;;;4.60;;
68247;SDS011;55064;49.636;12.164;2022-07-23T12:27:32;7.03;;;4.32;;
68247;SDS011;55064;49.636;12.164;2022-07-23T12:29:59;8.53;;;4.73;;
68247;SDS011;55064;49.636;12.164;2022-07-23T12:32:42;9.10;;;5.20;;
68247;SDS011;55064;49.636;12.164;2022-07-23T12:35:14;9.40;;;4.80;;
68247;SDS011;55064;49.636;12.164;2022-07-23T12:37:41;10.82;;;5.10;;
68247;SDS011;55064;49.636;12.164;2022-07-23T12:43:10;7.73;;;4.57;;
68247;SDS011;55064;49.636;12.164;2022-07-23T12:45:48;7.50;;;4.57;;
68247;SDS011;55064;49.636;12.164;2022-07-23T12:48:19;9.20;;;4.75;;
68247;SDS011;55064;49.636;12.164;2022-07-23T12:53:37;8.40;;;4.70;;
68247;SDS011;55064;49.636;12.164;2022-07-23T12:56:14;8.37;;;4.90;;
68247;SDS011;55064;49.636;12.164;2022-07-23T12:58:49;7.60;;;4.40;;
68247;SDS011;55064;49.636;12.164;2022-07-23T13:06:24;7.47;;;4.20;;
68247;SDS011;55064;49.636;12.164;2022-07-23T13:08:53;7.50;;;4.80;;
68247;SDS011;55064;49.636;12.164;2022-07-23T13:11:18;7.70;;;4.37;;
68247;SDS011;55064;49.636;12.164;2022-07-23T13:13:46;7.15;;;4.50;;
68247;SDS011;55064;49.636;12.164;2022-07-23T13:16:12;8.30;;;4.40;;
68247;SDS011;55064;49.636;12.164;2022-07-23T13:18:37;6.95;;;4.10;;
68247;SDS011;55064;49.636;12.164;2022-07-23T13:21:03;8.07;;;4.30;;
68247;SDS011;55064;49.636;12.164;2022-07-23T13:23:28;7.25;;;4.25;;
68247;SDS011;55064;49.636;12.164;2022-07-23T13:25:56;7.67;;;4.70;;
68247;SDS011;55064;49.636;12.164;2022-07-23T13:28:22;7.13;;;4.05;;
68247;SDS011;55064;49.636;12.164;2022-07-23T13:30:50;8.68;;;4.55;;
68247;SDS011;55064;49.636;12.164;2022-07-23T13:33:20;7.25;;;4.32;;
68247;SDS011;55064;49.636;12.164;2022-07-23T13:35:48;6.77;;;4.37;;
68247;SDS011;55064;49.636;12.164;2022-07-23T13:38:14;7.40;;;4.65;;
68247;SDS011;55064;49.636;12.164;2022-07-23T13:40:41;6.68;;;4.50;;
68247;SDS011;55064;49.636;12.164;2022-07-23T13:43:11;9.17;;;4.80;;
68247;SDS011;55064;49.636;12.164;2022-07-23T13:45:38;7.55;;;4.68;;
68247;SDS011;55064;49.636;12.164;2022-07-23T13:48:07;7.07;;;4.63;;
68247;SDS011;55064;49.636;12.164;2022-07-23T13:50:33;7.63;;;5.03;;
68247;SDS011;55064;49.636;12.164;2022-07-23T13:53:01;8.18;;;4.57;;
68247;SDS011;55064;49.636;12.164;2022-07-23T13:55:34;7.53;;;4.73;;
68247;SDS011;55064;49.636;12.164;2022-07-23T13:58:00;8.52;;;4.72;;
68247;SDS011;55064;49.636;12.164;2022-07-23T14:00:26;7.57;;;4.88;;
68247;SDS011;55064;49.636;12.164;2022-07-23T14:02:55;8.35;;;5.55;;
68247;SDS011;55064;49.636;12.164;2022-07-23T14:05:20;8.63;;;5.53;;
68247;SDS011;55064;49.636;12.164;2022-07-23T14:07:46;7.30;;;5.00;;
68247;SDS011;55064;49.636;12.164;2022-07-23T14:10:15;8.60;;;5.38;;
68247;SDS011;55064;49.636;12.164;2022-07-23T14:12:42;8.60;;;5.33;;
68247;SDS011;55064;49.636;12.164;2022-07-23T14:15:11;8.57;;;5.53;;
68247;SDS011;55064;49.636;12.164;2022-07-23T14:17:37;8.88;;;5.40;;
68247;SDS011;55064;49.636;12.164;2022-07-23T14:20:07;8.88;;;5.78;;
68247;SDS011;55064;49.636;12.164;2022-07-23T14:22:35;8.68;;;5.78;;
68247;SDS011;55064;49.636;12.164;2022-07-23T14:25:04;9.23;;;5.80;;
68247;SDS011;55064;49.636;12.164;2022-07-23T14:27:33;8.38;;;5.30;;
68247;SDS011;55064;49.636;12.164;2022-07-23T14:30:06;8.45;;;5.57;;
68247;SDS011;55064;49.636;12.164;2022-07-23T14:32:35;9.20;;;6.13;;
68247;SDS011;55064;49.636;12.164;2022-07-23T14:35:01;9.35;;;5.97;;
68247;SDS011;55064;49.636;12.164;2022-07-23T14:37:27;7.90;;;5.50;;
68247;SDS011;55064;49.636;12.164;2022-07-23T14:39:53;8.98;;;5.95;;
68247;SDS011;55064;49.636;12.164;2022-07-23T14:42:18;10.50;;;5.97;;
68247;SDS011;55064;49.636;12.164;2022-07-23T14:44:44;9.32;;;6.20;;
68247;SDS011;55064;49.636;12.164;2022-07-23T14:47:10;9.00;;;6.10;;
68247;SDS011;55064;49.636;12.164;2022-07-23T14:49:40;10.88;;;5.80;;
68247;SDS011;55064;49.636;12.164;2022-07-23T14:52:05;9.40;;;6.57;;
68247;SDS011;55064;49.636;12.164;2022-07-23T14:54:33;8.67;;;5.83;;
68247;SDS011;55064;49.636;12.164;2022-07-23T14:57:02;9.65;;;6.43;;
68247;SDS011;55064;49.636;12.164;2022-07-23T14:59:29;10.40;;;6.22;;
68247;SDS011;55064;49.636;12.164;2022-07-23T15:01:57;10.20;;;6.32;;
68247;SDS011;55064;49.636;12.164;2022-07-23T15:04:23;8.40;;;6.07;;
68247;SDS011;55064;49.636;12.164;2022-07-23T15:06:51;9.30;;;6.93;;
68247;SDS011;55064;49.636;12.164;2022-07-23T15:09:18;10.63;;;6.75;;
68247;SDS011;55064;49.636;12.164;2022-07-23T15:11:45;10.77;;;7.05;;
68247;SDS011;55064;49.636;12.164;2022-07-23T15:14:13;10.27;;;6.53;;
68247;SDS011;55064;49.636;12.164;2022-07-23T15:16:41;11.18;;;7.25;;
68247;SDS011;55064;49.636;12.164;2022-07-23T15:19:06;9.23;;;7.37;;
68247;SDS011;55064;49.636;12.164;2022-07-23T15:21:32;10.23;;;7.00;;
68247;SDS011;55064;49.636;12.164;2022-07-23T15:23:59;11.05;;;7.55;;
68247;SDS011;55064;49.636;12.164;2022-07-23T15:26:30;12.23;;;7.50;;
68247;SDS011;55064;49.636;12.164;2022-07-23T15:28:56;11.87;;;7.50;;
68247;SDS011;55064;49.636;12.164;2022-07-23T15:31:23;13.60;;;7.68;;